Huvudsida
METAR-TAF:

METAR-TAF

Flygplatser :

Norrköping flygplats

Norrköping, Sverige

latitud: 58-35N, longitud: 016-09E, höjd: 34 m

Aktuellt väderrapport

Denna rapport gjordes för 38 minuter sedan, klockan 14:20 UTC
Vind 12 kt från väst/nordväst
Temperatur 10°C
Fuktighet 27%
Tryck 1017 hPa
Sikt 10 km eller mer
Inga moln under 1 500 m eller inga cumulonimbus

METAR: ESSP 091420Z 30012KT CAVOK 10/M08 Q1017

Tid: 16:58 (14:58 UTC)

Väderprognos

Denna rapport gjordes för 28 minuter sedan, klockan 14:30 UTC
Prognos gäller från 09 kl. 15 UTC till 09 kl. 17 UTC
Vind 12 kt från nord/nordväst
Sikt 10 km eller mer
Inga moln under 1 500 m eller inga cumulonimbus

TAF: ESSP 091430Z 0915/0917 34012KT CAVOK

Aktuella väderrapporter och prognoser från 4000 flygplatser (METAR- och TAF-rapporter).

De tillgängliga stationerna syns som gula och röda prickar på kartan.

För musen över prickarna för att se namnen på stationerna.

Klicka sedan för att få väderrapporter och prognoser.

För att ändra kartan: Klicka på de gröna knapparna med ett svart kors på för att zooma in; den gröna knappen med ett streck på för att zooma ut; eller på de gröna pilarna för angränsande kartor.


METAR-TAF: